createdAt,value
2022-08-28T00:02:21.451Z,98183.81
2022-08-28T00:05:13.437Z,98183.22
2022-08-28T00:08:03.162Z,98189.84
2022-08-28T00:10:54.785Z,98183.22
2022-08-28T00:13:47.261Z,98179.50
2022-08-28T00:16:37.237Z,98182.41
2022-08-28T00:19:28.256Z,98192.97
2022-08-28T00:22:17.528Z,98186.97
2022-08-28T00:25:08.304Z,98187.19
2022-08-28T00:27:59.921Z,98183.66
2022-08-28T00:30:52.619Z,98189.03
2022-08-28T00:33:43.296Z,98187.81
2022-08-28T00:36:33.978Z,98179.72
2022-08-28T00:39:23.274Z,98178.91
2022-08-28T00:42:12.618Z,98182.84
2022-08-28T00:45:02.094Z,98189.28
2022-08-28T00:47:52.509Z,98186.16
2022-08-28T00:51:00.480Z,98190.13
2022-08-28T00:53:55.575Z,98191.97
2022-08-28T00:56:52.061Z,98193.22
2022-08-28T00:59:42.620Z,98191.97
2022-08-28T01:02:32.222Z,98187.41
2022-08-28T01:05:23.040Z,98185.34
2022-08-28T01:08:12.932Z,98192.81
2022-08-28T01:11:08.296Z,98195.09
2022-08-28T01:14:03.122Z,98186.19
2022-08-28T01:16:56.109Z,98180.41
2022-08-28T01:19:57.097Z,98187.00
2022-08-28T01:22:59.227Z,98190.75
2022-08-28T01:25:49.782Z,98190.16
2022-08-28T01:28:39.711Z,98196.91
2022-08-28T01:31:32.565Z,98196.91
2022-08-28T01:34:22.383Z,98193.63
2022-08-28T01:37:11.808Z,98196.94
2022-08-28T01:40:01.514Z,98193.22
2022-08-28T01:42:52.147Z,98202.53
2022-08-28T01:45:41.908Z,98201.25
2022-08-28T01:48:35.893Z,98192.78
2022-08-28T01:51:28.519Z,98200.03
2022-08-28T01:54:25.304Z,98200.66
2022-08-28T01:57:14.676Z,98185.75
2022-08-28T02:00:11.314Z,98197.56
2022-08-28T02:03:04.031Z,98205.00
2022-08-28T02:05:53.243Z,98208.69
2022-08-28T02:08:42.649Z,98200.84
2022-08-28T02:11:32.183Z,98202.72
2022-08-28T02:14:22.718Z,98203.94
2022-08-28T02:17:13.442Z,98202.69
2022-08-28T02:20:02.888Z,98202.28
2022-08-28T02:22:52.252Z,98207.66
2022-08-28T02:25:41.835Z,98210.13
2022-08-28T02:28:31.106Z,98205.78
2022-08-28T02:31:20.336Z,98213.47
2022-08-28T02:34:11.453Z,98211.16
2022-08-28T02:37:00.899Z,98211.56
2022-08-28T02:39:50.532Z,98210.53
2022-08-28T02:42:40.070Z,98208.88
2022-08-28T02:45:29.330Z,98211.38
2022-08-28T02:48:19.028Z,98215.31
2022-08-28T02:51:14.607Z,98206.19
2022-08-28T02:54:04.246Z,98197.53
2022-08-28T02:56:55.856Z,98208.88
2022-08-28T02:59:47.778Z,98202.69
2022-08-28T03:02:37.603Z,98208.09
2022-08-28T03:05:28.360Z,98204.75
2022-08-28T03:08:18.853Z,98207.25
2022-08-28T03:11:09.366Z,98207.84
2022-08-28T03:13:58.582Z,98201.88
2022-08-28T03:16:48.077Z,98204.34
2022-08-28T03:19:37.792Z,98204.56
2022-08-28T03:22:41.153Z,98203.91
2022-08-28T03:25:32.234Z,98203.50
2022-08-28T03:28:21.721Z,98201.88
2022-08-28T03:31:18.125Z,98203.09
2022-08-28T03:34:08.051Z,98207.66
2022-08-28T03:36:57.214Z,98207.66
2022-08-28T03:39:49.899Z,98211.19
2022-08-28T03:42:42.420Z,98202.69
2022-08-28T03:45:41.595Z,98214.69
2022-08-28T03:48:34.654Z,98204.97
2022-08-28T03:51:29.611Z,98213.03
2022-08-28T03:54:19.043Z,98213.66
2022-08-28T03:57:08.287Z,98209.50
2022-08-28T04:00:01.104Z,98220.06
2022-08-28T04:02:50.431Z,98218.41
2022-08-28T04:05:40.393Z,98214.69
2022-08-28T04:08:30.539Z,98212.81
2022-08-28T04:11:20.077Z,98223.59
2022-08-28T04:14:09.434Z,98229.16
2022-08-28T04:17:01.655Z,98220.06
2022-08-28T04:19:54.363Z,98228.31
2022-08-28T04:22:43.674Z,98225.44
2022-08-28T04:25:34.528Z,98230.19
2022-08-28T04:28:24.107Z,98229.16
2022-08-28T04:31:13.910Z,98229.16
2022-08-28T04:34:08.651Z,98223.78
2022-08-28T04:36:58.486Z,98230.81
2022-08-28T04:39:47.676Z,98225.22
2022-08-28T04:42:37.838Z,98233.50
2022-08-28T04:45:27.063Z,98235.38
2022-08-28T04:48:16.633Z,98239.91
2022-08-28T04:51:10.936Z,98243.44
2022-08-28T04:54:04.477Z,98237.88
2022-08-28T04:56:54.348Z,98248.63
2022-08-28T04:59:45.052Z,98241.56
2022-08-28T05:02:34.361Z,98247.78
2022-08-28T05:05:23.807Z,98246.53
2022-08-28T05:08:16.431Z,98246.94
2022-08-28T05:11:14.618Z,98245.28
2022-08-28T05:14:25.808Z,98245.94
2022-08-28T05:17:16.975Z,98249.03
2022-08-28T05:20:07.209Z,98259.78
2022-08-28T05:22:58.110Z,98260.63
2022-08-28T05:25:51.737Z,98258.94
2022-08-28T05:28:41.667Z,98266.00
2022-08-28T05:31:33.063Z,98267.44
2022-08-28T05:34:22.287Z,98270.97
2022-08-28T05:37:11.579Z,98272.81
2022-08-28T05:40:04.335Z,98272.63
2022-08-28T05:42:56.099Z,98275.97
2022-08-28T05:45:45.807Z,98281.13
2022-08-28T05:48:39.074Z,98275.56
2022-08-28T05:51:30.049Z,98281.53
2022-08-28T05:54:31.242Z,98283.00
2022-08-28T05:57:20.702Z,98279.28
2022-08-28T06:00:14.261Z,98280.53
2022-08-28T06:03:07.024Z,98289.22
2022-08-28T06:06:03.619Z,98290.88
2022-08-28T06:08:59.461Z,98279.72
2022-08-28T06:11:52.359Z,98288.41
2022-08-28T06:14:41.457Z,98286.13
2022-08-28T06:17:35.762Z,98282.22
2022-08-28T06:20:25.862Z,98288.66
2022-08-28T06:23:23.795Z,98290.09
2022-08-28T06:26:13.526Z,98288.44
2022-08-28T06:29:04.155Z,98300.50
2022-08-28T06:32:01.725Z,98292.63
2022-08-28T06:34:52.580Z,98295.75
2022-08-28T06:37:41.813Z,98301.97
2022-08-28T06:41:13.933Z,98297.59
2022-08-28T06:44:03.661Z,98294.72
2022-08-28T06:46:55.609Z,98300.94
2022-08-28T06:49:44.785Z,98296.78
2022-08-28T06:52:35.384Z,98291.41
2022-08-28T06:55:27.026Z,98310.88
2022-08-28T06:58:20.697Z,98301.94
2022-08-28T07:01:14.013Z,98303.81
2022-08-28T07:04:08.796Z,98301.72
2022-08-28T07:06:58.367Z,98294.44
2022-08-28T07:09:49.102Z,98296.72
2022-08-28T07:12:38.257Z,98294.25
2022-08-28T07:15:27.884Z,98304.19
2022-08-28T07:18:18.465Z,98299.19
2022-08-28T07:21:12.343Z,98303.94
2022-08-28T07:24:03.368Z,98309.53
2022-08-28T07:26:54.333Z,98303.72
2022-08-28T07:29:43.501Z,98309.53
2022-08-28T07:32:37.473Z,98304.50
2022-08-28T07:35:29.375Z,98304.72
2022-08-28T07:38:18.786Z,98304.88
2022-08-28T07:41:16.023Z,98305.69
2022-08-28T07:44:26.944Z,98313.13
2022-08-28T07:47:16.423Z,98314.75
2022-08-28T07:50:08.744Z,98318.88
2022-08-28T07:52:57.840Z,98323.41
2022-08-28T07:55:47.288Z,98324.44
2022-08-28T07:58:36.329Z,98314.66
2022-08-28T08:01:30.574Z,98322.50
2022-08-28T08:04:22.683Z,98321.22
2022-08-28T08:07:12.902Z,98322.00
2022-08-28T08:10:02.060Z,98316.09
2022-08-28T08:12:52.359Z,98314.53
2022-08-28T08:15:42.662Z,98319.16
2022-08-28T08:18:33.466Z,98322.50
2022-08-28T08:21:29.575Z,98314.13
2022-08-28T08:24:21.009Z,98315.84
2022-08-28T08:27:10.667Z,98314.38
2022-08-28T08:30:00.279Z,98307.41
2022-08-28T08:32:49.358Z,98317.25
2022-08-28T08:35:39.903Z,98318.41
2022-08-28T08:38:31.473Z,98320.25
2022-08-28T08:41:29.002Z,98324.19
2022-08-28T08:44:33.203Z,98324.66
2022-08-28T08:47:36.490Z,98323.19
2022-08-28T08:50:30.362Z,98315.94
2022-08-28T08:53:40.655Z,98319.47
2022-08-28T08:56:34.797Z,98325.88
2022-08-28T08:59:29.757Z,98322.16
2022-08-28T09:02:31.220Z,98319.44
2022-08-28T09:05:27.832Z,98326.59
2022-08-28T09:08:44.588Z,98326.78
2022-08-28T09:11:50.354Z,98329.00
2022-08-28T09:15:04.932Z,98330.72
2022-08-28T09:17:59.525Z,98326.81
2022-08-28T09:20:52.717Z,98319.72
2022-08-28T09:23:43.192Z,98324.13
2022-08-28T09:26:36.445Z,98321.75
2022-08-28T09:29:31.580Z,98324.28
2022-08-28T09:32:26.218Z,98322.94
2022-08-28T09:35:28.190Z,98322.56
2022-08-28T09:38:27.942Z,98321.00
2022-08-28T09:41:36.184Z,98320.81
2022-08-28T09:44:25.434Z,98325.06
2022-08-28T09:47:48.890Z,98317.28
2022-08-28T09:50:41.661Z,98312.00
2022-08-28T09:53:34.640Z,98313.22
2022-08-28T09:56:32.100Z,98315.50
2022-08-28T09:59:25.784Z,98307.84
2022-08-28T10:02:27.551Z,98311.72
2022-08-28T10:05:29.971Z,98305.81
2022-08-28T10:08:43.449Z,98309.63
2022-08-28T10:11:48.436Z,98319.53
2022-08-28T10:14:57.775Z,98324.44
2022-08-28T10:18:14.377Z,98313.47
2022-08-28T10:21:15.951Z,98319.78
2022-08-28T10:24:27.545Z,98319.53
2022-08-28T10:27:41.446Z,98313.50
2022-08-28T10:30:40.593Z,98316.53
2022-08-28T10:33:50.353Z,98311.03
2022-08-28T10:36:39.693Z,98311.88
2022-08-28T10:39:44.313Z,98311.88
2022-08-28T10:42:41.338Z,98313.53
2022-08-28T10:45:34.639Z,98310.78
2022-08-28T10:48:28.521Z,98313.53
2022-08-28T10:51:34.876Z,98305.59
2022-08-28T10:54:33.507Z,98312.13
2022-08-28T10:57:39.238Z,98315.19
2022-08-28T11:00:31.235Z,98313.50
2022-08-28T11:03:41.069Z,98311.34
2022-08-28T11:06:37.326Z,98312.72
2022-08-28T11:09:36.911Z,98319.00
2022-08-28T11:12:44.090Z,98325.84
2022-08-28T11:15:52.563Z,98325.56
2022-08-28T11:19:15.135Z,98322.28
2022-08-28T11:22:12.698Z,98325.84
2022-08-28T11:25:13.863Z,98332.38
2022-08-28T11:28:43.308Z,98323.03
2022-08-28T11:31:45.594Z,98325.22
2022-08-28T11:35:02.167Z,98330.41
2022-08-28T11:37:54.789Z,98322.47
2022-08-28T11:41:13.238Z,98326.22
2022-08-28T11:44:47.254Z,98324.28
2022-08-28T11:47:56.286Z,98327.25
2022-08-28T11:50:58.728Z,98330.81
2022-08-28T11:54:01.801Z,98336.22
2022-08-28T11:57:07.028Z,98331.78
2022-08-28T12:00:08.410Z,98336.34
2022-08-28T12:03:14.107Z,98341.50
2022-08-28T12:06:05.272Z,98339.28
2022-08-28T12:09:13.626Z,98335.72
2022-08-28T12:12:10.492Z,98340.34
2022-08-28T12:15:07.701Z,98333.22
2022-08-28T12:18:01.452Z,98326.94
2022-08-28T12:21:03.977Z,98333.13
2022-08-28T12:24:09.196Z,98333.41
2022-08-28T12:27:02.896Z,98326.03
2022-08-28T12:29:56.186Z,98322.53
2022-08-28T12:32:56.138Z,98316.75
2022-08-28T12:35:46.924Z,98326.09
2022-08-28T12:38:36.302Z,98323.63
2022-08-28T12:41:26.537Z,98317.88
2022-08-28T12:44:16.450Z,98319.00
2022-08-28T12:47:07.304Z,98317.94
2022-08-28T12:49:56.434Z,98320.41
2022-08-28T12:52:53.046Z,98310.59
2022-08-28T12:55:43.017Z,98307.06
2022-08-28T12:58:35.805Z,98308.19
2022-08-28T13:01:31.468Z,98304.13
2022-08-28T13:04:34.745Z,98293.19
2022-08-28T13:07:31.155Z,98295.72
2022-08-28T13:10:26.666Z,98302.28
2022-08-28T13:13:23.788Z,98296.81
2022-08-28T13:16:34.686Z,98291.94
2022-08-28T13:19:29.368Z,98290.28
2022-08-28T13:22:39.622Z,98287.88
2022-08-28T13:25:36.400Z,98287.06
2022-08-28T13:28:25.899Z,98287.56
2022-08-28T13:31:29.564Z,98276.44
2022-08-28T13:34:26.200Z,98264.22
2022-08-28T13:37:44.731Z,98274.63
2022-08-28T13:41:00.492Z,98274.31
2022-08-28T13:43:52.196Z,98271.25
2022-08-28T13:46:41.752Z,98270.09
2022-08-28T13:49:31.017Z,98270.56
2022-08-28T13:52:20.358Z,98278.75
2022-08-28T13:55:11.317Z,98269.91
2022-08-28T13:58:01.891Z,98275.81
2022-08-28T14:00:52.562Z,98270.22
2022-08-28T14:03:41.465Z,98275.19
2022-08-28T14:06:31.932Z,98272.59
2022-08-28T14:09:22.660Z,98278.78
2022-08-28T14:12:12.341Z,98276.75
2022-08-28T14:15:03.936Z,98278.56
2022-08-28T14:17:53.257Z,98277.81
2022-08-28T14:20:42.537Z,98283.97
2022-08-28T14:23:35.569Z,98286.25
2022-08-28T14:26:24.728Z,98290.13
2022-08-28T14:29:16.823Z,98292.78
2022-08-28T14:32:07.749Z,98284.97
2022-08-28T14:34:57.132Z,98282.91
2022-08-28T14:37:46.391Z,98282.50
2022-08-28T14:40:38.383Z,98288.06
2022-08-28T14:43:27.900Z,98284.03
2022-08-28T14:46:18.915Z,98283.81
2022-08-28T14:49:13.884Z,98282.78
2022-08-28T14:52:03.642Z,98275.13
2022-08-28T14:54:53.157Z,98279.50
2022-08-28T14:57:42.631Z,98278.75
2022-08-28T15:00:42.414Z,98274.63
2022-08-28T15:03:32.515Z,98280.13
2022-08-28T15:06:24.004Z,98277.09
2022-08-28T15:09:15.171Z,98264.78
2022-08-28T15:12:05.136Z,98265.06
2022-08-28T15:14:55.128Z,98269.16
2022-08-28T15:17:46.549Z,98265.88
2022-08-28T15:20:42.502Z,98272.13
2022-08-28T15:23:33.466Z,98275.16
2022-08-28T15:26:26.354Z,98269.13
2022-08-28T15:29:16.628Z,98267.72
2022-08-28T15:32:06.511Z,98265.22
2022-08-28T15:34:55.765Z,98263.00
2022-08-28T15:37:45.134Z,98260.25
2022-08-28T15:40:53.646Z,98263.22
2022-08-28T15:43:47.615Z,98259.06
2022-08-28T15:46:37.231Z,98260.34
2022-08-28T15:49:28.761Z,98259.47
2022-08-28T15:52:19.549Z,98264.38
2022-08-28T15:55:10.165Z,98255.03
2022-08-28T15:58:00.777Z,98277.56
2022-08-28T16:00:50.354Z,98266.53
2022-08-28T16:03:40.542Z,98269.78
2022-08-28T16:06:29.921Z,98277.13
2022-08-28T16:09:19.309Z,98267.25
2022-08-28T16:12:08.806Z,98276.16
2022-08-28T16:14:59.430Z,98271.19
2022-08-28T16:17:51.820Z,98271.66
2022-08-28T16:20:44.031Z,98269.69
2022-08-28T16:23:33.589Z,98273.94
2022-08-28T16:26:22.870Z,98271.72
2022-08-28T16:29:12.304Z,98272.66
2022-08-28T16:32:03.226Z,98275.03
2022-08-28T16:34:53.108Z,98265.16
2022-08-28T16:37:42.673Z,98262.66
2022-08-28T16:40:31.983Z,98277.88
2022-08-28T16:43:21.514Z,98268.25
2022-08-28T16:46:16.791Z,98261.59
2022-08-28T16:49:07.446Z,98275.97
2022-08-28T16:51:56.625Z,98265.25
2022-08-28T16:54:48.373Z,98268.75
2022-08-28T16:57:38.194Z,98263.81
2022-08-28T17:00:28.449Z,98262.66
2022-08-28T17:03:17.781Z,98258.75
2022-08-28T17:06:16.861Z,98263.53
2022-08-28T17:09:06.250Z,98264.03
2022-08-28T17:11:55.515Z,98267.25
2022-08-28T17:14:44.878Z,98262.25
2022-08-28T17:17:34.676Z,98271.69
2022-08-28T17:20:41.729Z,98270.78
2022-08-28T17:23:32.401Z,98270.13
2022-08-28T17:26:21.966Z,98271.63
2022-08-28T17:29:11.907Z,98271.22
2022-08-28T17:32:01.152Z,98277.91
2022-08-28T17:34:50.492Z,98265.78
2022-08-28T17:37:40.864Z,98270.22
2022-08-28T17:40:31.648Z,98274.66
2022-08-28T17:43:21.264Z,98273.97
2022-08-28T17:46:10.880Z,98278.50
2022-08-28T17:49:00.681Z,98278.09
2022-08-28T17:51:51.098Z,98283.34
2022-08-28T17:54:40.297Z,98280.41
2022-08-28T17:57:31.279Z,98284.38
2022-08-28T18:00:21.079Z,98290.19
2022-08-28T18:03:10.546Z,98292.13
2022-08-28T18:06:00.815Z,98283.97
2022-08-28T18:08:52.004Z,98297.34
2022-08-28T18:11:43.098Z,98294.06
2022-08-28T18:14:33.727Z,98296.25
2022-08-28T18:17:23.081Z,98298.38
2022-08-28T18:20:13.639Z,98308.03
2022-08-28T18:23:03.811Z,98315.81
2022-08-28T18:25:53.340Z,98321.22
2022-08-28T18:28:44.617Z,98329.31
2022-08-28T18:31:35.539Z,98318.69
2022-08-28T18:34:24.935Z,98328.09
2022-08-28T18:37:14.205Z,98323.28
2022-08-28T18:40:03.835Z,98325.56
2022-08-28T18:42:53.894Z,98329.53
2022-08-28T18:45:43.112Z,98329.47
2022-08-28T18:48:34.326Z,98336.69
2022-08-28T18:51:23.510Z,98336.03
2022-08-28T18:54:53.500Z,98338.22
2022-08-28T18:57:49.796Z,98355.66
2022-08-28T19:00:41.285Z,98354.16
2022-08-28T19:03:32.651Z,98357.34
2022-08-28T19:06:23.391Z,98353.72
2022-08-28T19:09:20.440Z,98364.41
2022-08-28T19:12:10.397Z,98358.50
2022-08-28T19:15:01.650Z,98363.75
2022-08-28T19:17:50.818Z,98369.66
2022-08-28T19:20:39.936Z,98369.75
2022-08-28T19:23:30.447Z,98374.56
2022-08-28T19:26:19.709Z,98376.91
2022-08-28T19:29:10.106Z,98375.09
2022-08-28T19:31:59.311Z,98381.56
2022-08-28T19:34:50.433Z,98376.59
2022-08-28T19:37:42.666Z,98382.00
2022-08-28T19:40:33.721Z,98386.81
2022-08-28T19:43:23.026Z,98395.97
2022-08-28T19:46:19.900Z,98400.13
2022-08-28T19:49:10.088Z,98401.22
2022-08-28T19:51:59.281Z,98408.06
2022-08-28T19:54:49.090Z,98411.59
2022-08-28T19:57:39.737Z,98419.69
2022-08-28T20:00:31.137Z,98413.69
2022-08-28T20:03:22.760Z,98414.91
2022-08-28T20:06:12.349Z,98428.59
2022-08-28T20:09:03.091Z,98438.53
2022-08-28T20:11:53.312Z,98438.72
2022-08-28T20:14:44.753Z,98442.03
2022-08-28T20:17:34.663Z,98441.22
2022-08-28T20:20:56.859Z,98449.66
2022-08-28T20:23:46.099Z,98443.03
2022-08-28T20:26:35.748Z,98439.31
2022-08-28T20:29:25.221Z,98448.00
2022-08-28T20:32:15.820Z,98441.56
2022-08-28T20:35:07.918Z,98448.19
2022-08-28T20:37:57.302Z,98450.88
2022-08-28T20:40:46.613Z,98455.63
2022-08-28T20:43:36.732Z,98450.66
2022-08-28T20:46:31.987Z,98451.69
2022-08-28T20:49:23.764Z,98452.09
2022-08-28T20:52:13.690Z,98447.50
2022-08-28T20:55:02.835Z,98450.84
2022-08-28T20:57:52.498Z,98447.09
2022-08-28T21:00:42.112Z,98454.13
2022-08-28T21:03:31.429Z,98453.09
2022-08-28T21:06:22.047Z,98458.69
2022-08-28T21:09:11.125Z,98464.28
2022-08-28T21:12:00.428Z,98463.47
2022-08-28T21:14:51.468Z,98463.88
2022-08-28T21:17:41.993Z,98474.81
2022-08-28T21:20:31.374Z,98472.69
2022-08-28T21:23:21.996Z,98476.63
2022-08-28T21:26:13.035Z,98471.84
2022-08-28T21:29:02.535Z,98475.16
2022-08-28T21:31:53.865Z,98476.38
2022-08-28T21:34:45.600Z,98485.25
2022-08-28T21:37:35.430Z,98475.94
2022-08-28T21:40:26.126Z,98488.31
2022-08-28T21:43:15.327Z,98491.81
2022-08-28T21:46:06.287Z,98495.09
2022-08-28T21:48:56.334Z,98494.03
2022-08-28T21:51:45.669Z,98490.25
2022-08-28T21:54:36.851Z,98499.75
2022-08-28T21:57:28.275Z,98510.09
2022-08-28T22:00:22.730Z,98499.91
2022-08-28T22:03:11.934Z,98501.31
2022-08-28T22:06:01.330Z,98498.81
2022-08-28T22:08:52.151Z,98491.56
2022-08-28T22:11:41.345Z,98495.06
2022-08-28T22:14:32.580Z,98493.78
2022-08-28T22:17:21.934Z,98504.09
2022-08-28T22:20:12.218Z,98506.75
2022-08-28T22:23:14.777Z,98503.00
2022-08-28T22:26:06.512Z,98515.59
2022-08-28T22:28:57.929Z,98507.63
2022-08-28T22:31:48.551Z,98515.25
2022-08-28T22:34:42.376Z,98517.88
2022-08-28T22:37:31.619Z,98513.25
2022-08-28T22:40:21.709Z,98523.56
2022-08-28T22:43:10.939Z,98516.09
2022-08-28T22:46:00.513Z,98510.63
2022-08-28T22:48:52.172Z,98512.91
2022-08-28T22:51:41.429Z,98514.28
2022-08-28T22:54:33.208Z,98524.13
2022-08-28T22:57:22.635Z,98528.22
2022-08-28T23:00:18.090Z,98536.00
2022-08-28T23:03:07.567Z,98536.78
2022-08-28T23:05:58.341Z,98528.72
2022-08-28T23:08:47.615Z,98530.09
2022-08-28T23:11:38.615Z,98525.59
2022-08-28T23:14:28.304Z,98531.88
2022-08-28T23:17:18.614Z,98537.44
2022-08-28T23:20:11.651Z,98535.69
2022-08-28T23:23:03.569Z,98534.41
2022-08-28T23:25:53.006Z,98541.56
2022-08-28T23:28:43.502Z,98533.00
2022-08-28T23:31:32.723Z,98527.38
2022-08-28T23:34:21.919Z,98538.69
2022-08-28T23:37:11.133Z,98538.19
2022-08-28T23:40:01.860Z,98536.25
2022-08-28T23:42:51.758Z,98540.53
2022-08-28T23:45:42.510Z,98534.50
2022-08-28T23:48:32.100Z,98536.72
2022-08-28T23:51:22.749Z,98538.13
2022-08-28T23:54:14.624Z,98538.03
2022-08-28T23:57:06.556Z,98531.56
2022-08-28T23:59:56.300Z,98530.72
